Time;durP1;ratioP1;P1;durP2;ratioP2;P2;SDS_P1;SDS_P2;PMS_P1;PMS_P2;Temp;Humidity;BMP_temperature;BMP_pressure;BME280_temperature;BME280_humidity;BME280_pressure;Samples;Min_cycle;Max_cycle;Signal;HPM_P1;HPM_P2
2022/09/02 00:01:39;;;;;;;3.00;0.30;;;16.20;74.60;;;;;;5066287;28;20021;-94
2022/09/02 00:04:08;;;;;;;0.90;0.25;;;16.20;74.80;;;;;;5071199;28;20036;-94
2022/09/02 00:06:34;;;;;;;1.52;0.20;;;16.20;75.00;;;;;;5061278;28;20049;-95
2022/09/02 00:09:01;;;;;;;2.42;0.40;;;16.10;75.10;;;;;;5070036;28;20033;-94
2022/09/02 00:11:29;;;;;;;1.90;0.20;;;16.10;75.30;;;;;;5071168;28;20423;-94
2022/09/02 00:13:56;;;;;;;1.00;0.20;;;16.10;75.40;;;;;;5068227;28;20071;-95
2022/09/02 00:16:23;;;;;;;1.42;0.30;;;16.00;75.40;;;;;;5089218;28;20033;-95
2022/09/02 00:18:50;;;;;;;2.67;0.30;;;16.00;75.50;;;;;;5072832;28;20537;-95
2022/09/02 00:21:17;;;;;;;0.70;0.22;;;16.00;75.60;;;;;;5078056;28;20119;-95
2022/09/02 00:23:44;;;;;;;1.60;0.30;;;16.00;75.80;;;;;;5075042;28;20029;-95
2022/09/02 00:26:12;;;;;;;1.40;0.30;;;16.00;75.90;;;;;;5073873;28;20078;-94
2022/09/02 00:28:38;;;;;;;4.03;0.30;;;16.00;75.90;;;;;;5075839;28;20028;-95
2022/09/02 00:31:04;;;;;;;5.93;1.20;;;16.00;76.00;;;;;;5071678;28;20086;-94
2022/09/02 00:33:30;;;;;;;3.25;0.35;;;15.90;76.10;;;;;;5070799;28;20480;-95
2022/09/02 00:35:59;;;;;;;3.42;0.30;;;15.90;76.30;;;;;;5075219;28;20025;-95
2022/09/02 00:38:24;;;;;;;2.35;0.30;;;15.90;76.30;;;;;;5077307;28;20052;-94
2022/09/02 00:40:50;;;;;;;1.23;0.30;;;15.90;76.50;;;;;;5076235;28;20028;-95
2022/09/02 00:43:42;;;;;;;0.75;0.30;;;15.80;76.60;;;;;;5073094;28;20432;-94
2022/09/02 00:46:08;;;;;;;5.85;0.30;;;15.80;76.80;;;;;;5075814;28;20033;-94
2022/09/02 00:48:35;;;;;;;2.58;0.30;;;15.80;76.90;;;;;;5069623;28;20130;-94
2022/09/02 00:51:03;;;;;;;3.90;0.30;;;15.70;77.00;;;;;;5074595;28;20031;-95
2022/09/02 00:53:29;;;;;;;2.17;0.40;;;15.70;77.10;;;;;;5065621;28;20032;-95
2022/09/02 00:55:55;;;;;;;4.20;0.30;;;15.70;77.30;;;;;;5077255;28;20070;-94
2022/09/02 00:58:25;;;;;;;1.38;0.30;;;15.60;77.40;;;;;;5077736;28;20028;-95
2022/09/02 01:00:56;;;;;;;2.08;0.30;;;15.60;77.60;;;;;;5076191;28;20024;-94
2022/09/02 01:03:24;;;;;;;1.58;0.30;;;15.60;78.50;;;;;;5076826;28;20032;-94
2022/09/02 01:05:51;;;;;;;1.98;0.30;;;15.50;77.90;;;;;;5072294;28;20045;-95
2022/09/02 01:08:26;;;;;;;1.92;0.30;;;15.50;78.20;;;;;;5076218;28;20060;-94
2022/09/02 01:10:54;;;;;;;1.52;0.30;;;15.40;78.30;;;;;;5076740;28;20032;-95
2022/09/02 01:13:24;;;;;;;0.75;0.30;;;15.40;78.60;;;;;;5075265;28;20032;-96
2022/09/02 01:15:54;;;;;;;1.92;0.30;;;15.40;78.80;;;;;;5071877;28;20027;-95
2022/09/02 01:18:24;;;;;;;2.00;0.25;;;15.40;79.00;;;;;;5072629;28;20029;-95
2022/09/02 01:20:50;;;;;;;4.03;0.20;;;15.30;79.20;;;;;;5070972;28;20113;-94
2022/09/02 01:23:17;;;;;;;1.58;0.30;;;15.30;79.30;;;;;;5066423;28;20039;-95
2022/09/02 01:25:43;;;;;;;2.95;0.30;;;15.30;79.50;;;;;;5080589;28;20040;-96
2022/09/02 01:28:12;;;;;;;2.30;0.32;;;15.20;79.60;;;;;;5071097;28;20366;-95
2022/09/02 01:30:41;;;;;;;4.32;0.28;;;15.20;79.80;;;;;;5066604;28;20025;-94
2022/09/02 01:33:08;;;;;;;0.65;0.25;;;15.20;80.00;;;;;;5071499;28;20063;-94
2022/09/02 01:35:34;;;;;;;1.58;0.22;;;15.20;80.20;;;;;;5081245;28;20029;-95
2022/09/02 01:38:01;;;;;;;4.13;0.30;;;15.10;80.30;;;;;;5080516;28;20430;-95
2022/09/02 01:40:28;;;;;;;5.30;0.52;;;15.10;80.50;;;;;;5069248;28;20023;-95
2022/09/02 01:43:16;;;;;;;1.67;0.30;;;15.10;80.80;;;;;;5075518;28;20029;-94
2022/09/02 01:45:44;;;;;;;1.77;0.30;;;15.10;81.00;;;;;;5074895;28;20025;-94
2022/09/02 01:48:10;;;;;;;2.15;0.30;;;15.00;81.10;;;;;;5071062;28;20024;-94
2022/09/02 01:50:39;;;;;;;4.22;0.20;;;15.00;81.30;;;;;;5070024;28;20027;-94
2022/09/02 01:53:05;;;;;;;1.42;0.30;;;14.90;81.40;;;;;;5070411;28;20123;-95
2022/09/02 01:55:32;;;;;;;0.70;0.20;;;14.90;81.70;;;;;;5074343;28;20099;-95
2022/09/02 01:57:57;;;;;;;1.48;0.30;;;14.90;81.90;;;;;;5074476;28;20512;-94
2022/09/02 02:00:24;;;;;;;1.65;0.40;;;14.80;81.90;;;;;;5066362;28;20063;-94
2022/09/02 02:02:50;;;;;;;1.00;0.40;;;14.80;82.10;;;;;;5068833;28;20028;-94
2022/09/02 02:05:16;;;;;;;1.85;0.30;;;14.70;82.20;;;;;;5071283;28;20049;-95
2022/09/02 02:07:43;;;;;;;1.15;0.30;;;14.80;82.50;;;;;;5073170;28;20088;-94
2022/09/02 02:10:10;;;;;;;1.58;0.38;;;14.70;82.60;;;;;;5071323;28;20479;-95
2022/09/02 02:12:37;;;;;;;2.28;0.40;;;14.70;82.80;;;;;;5070636;28;20370;-94
2022/09/02 02:15:05;;;;;;;3.80;0.50;;;14.70;82.90;;;;;;5072296;28;20025;-94
2022/09/02 02:17:30;;;;;;;2.10;0.30;;;14.60;83.00;;;;;;5065772;28;20028;-94
2022/09/02 02:19:56;;;;;;;2.97;0.30;;;14.60;83.30;;;;;;5063718;28;20032;-94
2022/09/02 02:22:22;;;;;;;0.70;0.20;;;14.60;83.40;;;;;;5071536;28;20020;-94
2022/09/02 02:24:47;;;;;;;2.13;0.20;;;14.60;83.50;;;;;;5068773;28;20029;-95
2022/09/02 02:27:12;;;;;;;2.45;0.47;;;14.50;83.60;;;;;;5068058;28;20388;-95
2022/09/02 02:29:38;;;;;;;3.60;0.38;;;14.60;83.80;;;;;;5071061;28;20032;-95
2022/09/02 02:32:06;;;;;;;3.35;0.30;;;14.60;83.80;;;;;;5068769;28;20028;-94
2022/09/02 02:34:31;;;;;;;1.23;0.40;;;14.60;83.90;;;;;;5062523;28;20043;-94
2022/09/02 02:36:57;;;;;;;0.95;0.30;;;14.60;83.90;;;;;;5073592;28;20044;-95
2022/09/02 02:39:22;;;;;;;1.38;0.40;;;14.60;84.00;;;;;;5064919;28;20036;-95
2022/09/02 02:41:48;;;;;;;1.70;0.47;;;14.50;84.10;;;;;;5064890;28;20107;-95
2022/09/02 02:44:14;;;;;;;3.00;0.20;;;14.50;84.10;;;;;;5069380;28;20021;-95
2022/09/02 02:46:39;;;;;;;2.47;0.38;;;14.50;84.20;;;;;;5069366;28;20028;-94
2022/09/02 02:49:05;;;;;;;1.20;0.30;;;14.50;84.30;;;;;;5060183;28;20064;-95
2022/09/02 02:51:32;;;;;;;1.33;0.30;;;14.50;84.30;;;;;;5071866;28;20017;-95
2022/09/02 02:53:58;;;;;;;1.45;0.40;;;14.50;84.50;;;;;;5065866;28;20041;-94
2022/09/02 02:56:24;;;;;;;0.60;0.30;;;14.50;84.60;;;;;;5059103;28;20021;-94
2022/09/02 02:58:49;;;;;;;1.25;0.40;;;14.40;84.60;;;;;;5068858;28;20085;-95
2022/09/02 03:01:15;;;;;;;0.75;0.30;;;14.40;84.70;;;;;;5070334;28;20025;-94
2022/09/02 03:03:42;;;;;;;2.25;0.30;;;14.40;84.80;;;;;;5067406;28;20039;-94
2022/09/02 03:06:14;;;;;;;2.28;0.30;;;14.30;84.90;;;;;;5071549;28;20044;-95
2022/09/02 03:08:47;;;;;;;1.95;0.20;;;14.30;85.00;;;;;;5070252;28;20500;-93
2022/09/02 03:11:13;;;;;;;1.30;0.30;;;14.30;85.10;;;;;;5068499;28;20038;-94
2022/09/02 03:13:39;;;;;;;1.30;0.30;;;14.30;85.20;;;;;;5063246;28;20032;-93
2022/09/02 03:16:05;;;;;;;1.73;0.47;;;14.30;85.30;;;;;;5067406;28;20083;-94
2022/09/02 03:18:32;;;;;;;3.13;0.30;;;14.20;85.30;;;;;;5068766;28;20056;-93
2022/09/02 03:20:58;;;;;;;1.33;0.30;;;14.20;85.50;;;;;;5068764;28;20091;-93
2022/09/02 03:23:24;;;;;;;1.30;0.30;;;14.20;85.50;;;;;;5069409;28;20025;-94
2022/09/02 03:25:49;;;;;;;2.15;0.50;;;14.20;85.50;;;;;;5070378;28;20029;-93
2022/09/02 03:28:16;;;;;;;2.22;0.30;;;14.20;85.60;;;;;;5067832;28;20074;-94
2022/09/02 03:30:43;;;;;;;2.38;0.30;;;14.20;85.70;;;;;;5067693;28;20028;-94
2022/09/02 03:33:09;;;;;;;0.70;0.20;;;14.20;85.90;;;;;;5062365;28;20403;-94
2022/09/02 03:35:40;;;;;;;1.13;0.20;;;14.20;85.90;;;;;;5071735;28;20024;-93
2022/09/02 03:38:07;;;;;;;1.70;0.43;;;14.20;86.10;;;;;;5065689;28;20035;-94
2022/09/02 03:40:33;;;;;;;1.08;0.30;;;14.10;86.20;;;;;;5064146;28;20013;-95
2022/09/02 03:42:59;;;;;;;2.55;0.30;;;14.10;86.30;;;;;;5063367;28;20039;-94
2022/09/02 03:45:24;;;;;;;3.90;0.40;;;14.10;86.50;;;;;;5063571;28;20060;-93
2022/09/02 03:47:52;;;;;;;1.33;0.30;;;14.10;86.50;;;;;;5069488;28;20095;-94
2022/09/02 03:50:21;;;;;;;0.90;0.30;;;14.10;86.70;;;;;;5071337;28;20421;-95
2022/09/02 03:52:47;;;;;;;1.90;0.40;;;14.10;86.60;;;;;;5068653;28;20035;-94
2022/09/02 03:55:12;;;;;;;1.05;0.43;;;14.10;86.80;;;;;;5071784;28;20036;-94
2022/09/02 03:57:38;;;;;;;4.05;0.40;;;14.10;86.80;;;;;;5072586;28;20017;-95
2022/09/02 04:00:07;;;;;;;1.30;0.30;;;14.10;86.80;;;;;;5069860;28;20043;-93
2022/09/02 04:02:32;;;;;;;2.03;0.30;;;14.10;86.90;;;;;;5069226;28;20017;-94
2022/09/02 04:04:58;;;;;;;2.35;0.30;;;14.10;87.00;;;;;;5069702;28;20053;-94
2022/09/02 04:07:23;;;;;;;1.27;0.35;;;14.10;87.10;;;;;;5070244;28;20431;-93
2022/09/02 04:09:49;;;;;;;0.70;0.28;;;14.10;87.10;;;;;;5060559;28;20566;-93
2022/09/02 04:12:15;;;;;;;3.35;0.70;;;14.10;87.30;;;;;;5080773;28;20047;-93
2022/09/02 04:14:41;;;;;;;2.28;0.30;;;14.10;87.40;;;;;;5068220;28;20079;-93
2022/09/02 04:17:07;;;;;;;1.83;0.30;;;14.10;87.50;;;;;;5063168;28;20585;-95
2022/09/02 04:19:33;;;;;;;3.13;1.38;;;14.10;87.50;;;;;;5061001;28;20024;-96
2022/09/02 04:21:59;;;;;;;8.07;0.30;;;14.20;87.80;;;;;;5069520;28;20031;-95
2022/09/02 04:24:25;;;;;;;3.95;0.40;;;14.10;87.80;;;;;;5070933;28;20062;-95
2022/09/02 04:26:51;;;;;;;1.08;0.30;;;14.20;87.80;;;;;;5065292;28;20394;-96
2022/09/02 04:29:17;;;;;;;1.20;0.30;;;14.20;87.80;;;;;;5055574;28;20028;-95
2022/09/02 04:31:42;;;;;;;3.40;0.20;;;14.20;87.70;;;;;;5055047;28;20029;-95
2022/09/02 04:34:08;;;;;;;2.15;0.57;;;14.30;87.70;;;;;;5066315;28;20041;-96
2022/09/02 04:36:34;;;;;;;3.45;0.30;;;14.30;87.70;;;;;;5068507;28;20052;-95
2022/09/02 04:38:59;;;;;;;0.50;0.20;;;14.40;87.60;;;;;;5074138;28;20034;-96
2022/09/02 04:41:29;;;;;;;2.15;0.30;;;14.50;87.60;;;;;;5071725;28;20082;-96
2022/09/02 04:43:56;;;;;;;3.65;0.38;;;14.50;87.60;;;;;;5063440;28;20116;-95
2022/09/02 04:46:22;;;;;;;2.30;0.50;;;14.50;87.50;;;;;;5068873;28;20021;-96
2022/09/02 04:48:47;;;;;;;2.42;0.30;;;14.50;87.40;;;;;;5070505;28;20046;-95
2022/09/02 04:51:17;;;;;;;1.42;0.30;;;14.50;87.30;;;;;;5067346;28;20020;-95
2022/09/02 04:53:44;;;;;;;2.00;0.20;;;14.60;87.20;;;;;;5060618;28;20148;-96
2022/09/02 04:56:13;;;;;;;1.15;0.43;;;14.60;87.00;;;;;;5075485;28;20027;-95
2022/09/02 04:58:40;;;;;;;1.02;0.20;;;14.70;86.80;;;;;;5066392;28;20024;-94
2022/09/02 05:01:08;;;;;;;0.93;0.20;;;14.70;86.70;;;;;;5068971;28;20028;-95
2022/09/02 05:03:34;;;;;;;1.00;0.20;;;14.70;86.60;;;;;;5075499;28;20024;-96
2022/09/02 05:06:04;;;;;;;1.02;0.30;;;14.80;86.50;;;;;;5062144;28;20037;-96
2022/09/02 05:08:30;;;;;;;3.10;0.25;;;14.80;86.40;;;;;;5073542;28;20425;-95
2022/09/02 05:10:55;;;;;;;1.35;0.30;;;14.90;86.30;;;;;;5059425;28;20484;-95
2022/09/02 05:13:22;;;;;;;2.45;0.30;;;14.90;86.10;;;;;;5066385;28;20078;-95
2022/09/02 05:15:48;;;;;;;1.52;0.30;;;15.00;85.90;;;;;;5076112;28;20032;-95
2022/09/02 05:18:14;;;;;;;2.92;0.30;;;15.00;85.60;;;;;;5077146;28;20115;-94
2022/09/02 05:20:42;;;;;;;1.88;0.30;;;15.10;85.50;;;;;;5071044;28;20059;-95
2022/09/02 05:23:10;;;;;;;1.38;0.30;;;15.10;85.30;;;;;;5079124;28;20046;-95
2022/09/02 05:25:36;;;;;;;3.28;0.30;;;15.20;85.30;;;;;;5075987;28;20032;-94
2022/09/02 05:28:02;;;;;;;5.43;0.40;;;15.20;85.10;;;;;;5071614;28;20032;-95
2022/09/02 05:30:28;;;;;;;1.60;0.20;;;15.30;85.00;;;;;;5074956;28;20036;-95
2022/09/02 05:32:54;;;;;;;4.63;0.30;;;15.30;84.80;;;;;;5072565;28;20038;-95
2022/09/02 05:35:19;;;;;;;2.38;0.40;;;15.30;84.70;;;;;;5073946;28;20028;-95
2022/09/02 05:37:45;;;;;;;2.47;0.52;;;15.40;84.50;;;;;;5071675;28;20036;-95
2022/09/02 05:40:11;;;;;;;2.00;0.30;;;15.40;84.30;;;;;;5063148;28;20036;-94
2022/09/02 05:42:38;;;;;;;1.13;0.20;;;15.50;84.00;;;;;;5068467;28;20031;-95
2022/09/02 05:45:04;;;;;;;2.47;0.30;;;15.50;83.80;;;;;;5062945;28;20408;-96
2022/09/02 05:47:32;;;;;;;2.80;0.30;;;15.60;83.60;;;;;;5063124;28;20025;-94
2022/09/02 05:49:59;;;;;;;1.83;0.30;;;15.70;83.60;;;;;;5069108;28;20032;-95
2022/09/02 05:52:25;;;;;;;1.67;0.20;;;15.80;83.30;;;;;;5072166;28;20357;-96
2022/09/02 05:54:51;;;;;;;1.17;0.20;;;15.90;83.10;;;;;;5073591;28;20043;-95
2022/09/02 05:57:17;;;;;;;4.28;0.20;;;16.00;82.80;;;;;;5073052;28;20475;-94
2022/09/02 05:59:43;;;;;;;6.38;0.68;;;16.10;82.60;;;;;;5064133;28;20663;-96
2022/09/02 06:02:10;;;;;;;2.42;0.30;;;16.30;82.40;;;;;;5063448;28;20029;-96
2022/09/02 06:04:38;;;;;;;2.72;0.30;;;16.30;82.00;;;;;;5064939;28;20021;-96
2022/09/02 06:07:03;;;;;;;1.48;0.30;;;16.40;81.80;;;;;;5067916;28;20481;-95
2022/09/02 06:09:29;;;;;;;5.45;0.47;;;16.60;81.50;;;;;;5058587;28;20031;-95
2022/09/02 06:11:56;;;;;;;1.80;0.30;;;16.60;81.40;;;;;;5070314;28;20075;-95
2022/09/02 06:14:24;;;;;;;0.60;0.20;;;16.60;81.10;;;;;;5074251;28;20036;-96
2022/09/02 06:16:50;;;;;;;2.15;0.30;;;16.70;81.00;;;;;;5069990;28;20059;-95
2022/09/02 06:19:16;;;;;;;1.80;0.30;;;16.90;81.00;;;;;;5063606;28;20104;-96
2022/09/02 06:21:42;;;;;;;2.97;0.40;;;16.90;80.60;;;;;;5058063;28;20482;-94
2022/09/02 06:24:10;;;;;;;1.27;0.30;;;17.10;80.40;;;;;;5058900;28;20032;-95
2022/09/02 06:26:37;;;;;;;1.83;0.30;;;17.10;80.00;;;;;;5084450;28;20053;-94
2022/09/02 06:29:03;;;;;;;2.15;0.20;;;17.10;79.60;;;;;;5069815;28;20448;-94
2022/09/02 06:31:29;;;;;;;2.83;0.60;;;17.20;79.60;;;;;;5065250;28;20029;-94
2022/09/02 06:33:57;;;;;;;7.05;0.30;;;17.20;79.40;;;;;;5063034;28;20056;-93
2022/09/02 06:36:25;;;;;;;4.50;0.30;;;17.20;79.30;;;;;;5057906;28;20021;-93
2022/09/02 06:38:52;;;;;;;1.75;0.40;;;17.20;79.50;;;;;;5073268;28;20032;-93
2022/09/02 06:41:26;;;;;;;3.75;0.30;;;17.30;79.50;;;;;;5072634;28;20029;-93
2022/09/02 06:43:53;;;;;;;2.75;0.50;;;17.40;79.30;;;;;;5069016;28;20024;-93
2022/09/02 06:46:31;;;;;;;7.47;0.30;;;17.40;79.20;;;;;;5069395;28;20024;-93
2022/09/02 06:48:57;;;;;;;1.08;0.28;;;17.50;79.10;;;;;;5057010;28;20057;-92
2022/09/02 06:51:25;;;;;;;1.75;0.30;;;17.50;79.20;;;;;;5064013;28;20051;-93
2022/09/02 06:53:51;;;;;;;4.05;0.30;;;17.50;79.10;;;;;;5064736;28;20047;-85
2022/09/02 06:56:17;;;;;;;1.13;0.30;;;17.60;79.10;;;;;;5070276;28;20111;-86
2022/09/02 06:58:43;;;;;;;2.47;0.30;;;17.60;79.00;;;;;;5067471;28;20032;-85
2022/09/02 07:01:12;;;;;;;1.63;0.20;;;17.70;79.00;;;;;;5059618;28;20078;-85
2022/09/02 07:06:21;;;;;;;2.08;0.38;;;17.90;78.60;;;;;;5071148;28;20056;-86
2022/09/02 07:08:47;;;;;;;1.52;0.40;;;18.00;78.30;;;;;;5069457;28;20036;-86
2022/09/02 07:11:20;;;;;;;4.97;0.40;;;18.10;78.00;;;;;;5066222;28;20024;-86
2022/09/02 07:13:46;;;;;;;1.98;0.30;;;18.20;77.70;;;;;;5060852;28;20495;-86
2022/09/02 07:16:12;;;;;;;1.45;0.28;;;18.20;77.30;;;;;;5063091;28;20025;-85
2022/09/02 07:18:37;;;;;;;4.80;0.30;;;18.20;77.40;;;;;;5062457;28;20055;-86
2022/09/02 07:21:03;;;;;;;2.40;0.28;;;18.30;77.50;;;;;;5068657;28;20438;-86
2022/09/02 07:23:29;;;;;;;5.78;0.30;;;18.50;77.10;;;;;;5068159;28;20032;-86
2022/09/02 07:25:54;;;;;;;3.72;0.38;;;18.50;77.00;;;;;;5068402;28;20066;-86
2022/09/02 07:28:21;;;;;;;3.33;0.50;;;18.60;76.70;;;;;;5068930;28;20029;-86
2022/09/02 07:30:47;;;;;;;2.53;0.40;;;18.70;76.80;;;;;;5086049;28;20040;-85
2022/09/02 07:33:14;;;;;;;3.00;0.40;;;18.70;76.60;;;;;;5058365;28;20086;-94
2022/09/02 07:35:44;;;;;;;5.35;0.35;;;18.90;76.40;;;;;;5065720;28;20070;-92
2022/09/02 07:38:10;;;;;;;4.65;0.30;;;19.00;76.10;;;;;;5061728;28;20020;-92
2022/09/02 07:40:38;;;;;;;4.28;0.30;;;19.10;75.80;;;;;;5075725;28;20119;-92
2022/09/02 07:43:06;;;;;;;1.15;0.20;;;19.20;75.70;;;;;;5058479;28;20033;-92
2022/09/02 07:45:34;;;;;;;0.55;0.20;;;19.50;75.30;;;;;;5062310;28;20476;-92
2022/09/02 07:48:00;;;;;;;3.40;0.57;;;19.60;74.90;;;;;;5052975;28;20085;-93
2022/09/02 07:50:26;;;;;;;3.08;0.73;;;19.70;74.50;;;;;;5068952;28;20108;-93
2022/09/02 07:52:56;;;;;;;2.60;0.28;;;19.90;74.00;;;;;;5068903;28;20033;-93
2022/09/02 07:55:23;;;;;;;1.88;0.35;;;20.00;73.50;;;;;;5075173;28;20090;-92
2022/09/02 07:57:49;;;;;;;3.95;0.93;;;20.00;73.30;;;;;;5073310;28;20120;-93
2022/09/02 08:00:16;;;;;;;2.65;0.30;;;20.10;72.90;;;;;;5074394;28;20028;-93
2022/09/02 08:02:43;;;;;;;3.05;0.45;;;20.10;72.60;;;;;;5073764;28;20029;-93
2022/09/02 08:05:09;;;;;;;2.30;0.30;;;20.30;72.40;;;;;;5071899;28;20056;-92
2022/09/02 08:07:35;;;;;;;3.05;0.40;;;20.30;72.50;;;;;;5072382;28;20081;-94
2022/09/02 08:10:00;;;;;;;2.85;0.40;;;20.40;72.00;;;;;;5068143;28;20024;-93
2022/09/02 08:12:27;;;;;;;5.40;0.77;;;20.50;72.20;;;;;;5073743;28;20024;-94
2022/09/02 08:14:54;;;;;;;5.65;0.30;;;20.60;72.10;;;;;;5070566;28;20028;-93
2022/09/02 08:17:20;;;;;;;1.60;0.30;;;20.70;72.40;;;;;;5072195;28;20024;-93
2022/09/02 08:19:45;;;;;;;4.45;0.30;;;20.90;72.10;;;;;;5072376;28;20155;-93
2022/09/02 08:22:11;;;;;;;5.18;0.40;;;21.10;71.80;;;;;;5055788;28;20199;-93
2022/09/02 08:24:36;;;;;;;1.25;0.40;;;21.20;71.60;;;;;;5068822;28;20036;-92
2022/09/02 08:27:02;;;;;;;6.55;0.50;;;21.30;71.40;;;;;;5065299;28;20037;-92
2022/09/02 08:29:27;;;;;;;3.03;0.40;;;21.40;71.00;;;;;;5069926;28;20025;-92
2022/09/02 08:31:53;;;;;;;4.32;0.60;;;21.50;70.80;;;;;;5058290;28;20020;-93
2022/09/02 08:34:18;;;;;;;1.65;0.40;;;21.50;71.10;;;;;;5070289;28;20040;-93
2022/09/02 08:36:44;;;;;;;3.10;0.40;;;21.60;71.20;;;;;;5064205;28;20062;-93
2022/09/02 08:39:10;;;;;;;6.85;0.40;;;21.70;71.60;;;;;;5079055;28;20024;-94
2022/09/02 08:42:00;;;;;;;4.90;0.50;;;21.80;70.70;;;;;;5073490;28;20041;-93
2022/09/02 08:44:27;;;;;;;3.08;0.52;;;21.90;70.70;;;;;;5068895;28;20020;-93
2022/09/02 08:46:58;;;;;;;4.78;0.50;;;21.80;70.90;;;;;;5074888;28;20040;-93
2022/09/02 08:49:33;;;;;;;3.97;0.40;;;21.80;70.90;;;;;;5069174;28;20017;-91
2022/09/02 08:52:02;;;;;;;5.13;0.40;;;21.80;71.10;;;;;;5074051;28;20025;-92
2022/09/02 08:54:42;;;;;;;4.90;1.13;;;22.00;70.80;;;;;;5060307;28;20401;-91
2022/09/02 08:57:09;;;;;;;1.50;0.40;;;22.10;71.20;;;;;;5076252;28;20077;-92
2022/09/02 08:59:36;;;;;;;2.33;0.47;;;22.20;70.40;;;;;;5075316;28;20070;-92
2022/09/02 09:02:25;;;;;;;3.92;0.63;;;22.10;70.00;;;;;;5076438;28;20021;-90
2022/09/02 09:05:22;;;;;;;3.60;0.63;;;22.10;69.60;;;;;;5065724;28;20469;-91
2022/09/02 09:07:53;;;;;;;4.20;0.40;;;22.00;69.20;;;;;;5075199;28;20032;-91
2022/09/02 09:10:35;;;;;;;2.28;0.60;;;22.00;69.40;;;;;;5075033;28;20039;-90
2022/09/02 09:13:27;;;;;;;10.47;1.83;;;22.00;69.30;;;;;;5074083;28;20037;-91
2022/09/02 09:16:30;;;;;;;2.17;0.40;;;22.00;69.00;;;;;;5068389;28;20029;-90
2022/09/02 09:19:07;;;;;;;2.55;0.40;;;22.00;68.30;;;;;;5060315;28;20028;-91
2022/09/02 09:21:33;;;;;;;4.75;0.50;;;21.90;68.30;;;;;;5075698;28;20027;-91
2022/09/02 09:24:20;;;;;;;1.48;0.40;;;21.80;68.60;;;;;;5075102;28;20032;-92
2022/09/02 09:26:46;;;;;;;2.35;0.40;;;21.80;68.70;;;;;;5069900;28;20029;-93
2022/09/02 09:29:11;;;;;;;7.20;0.50;;;21.90;68.70;;;;;;5072753;28;20020;-92
2022/09/02 09:31:39;;;;;;;2.72;0.50;;;22.00;69.70;;;;;;5074472;28;20500;-91
2022/09/02 09:34:13;;;;;;;2.22;0.50;;;22.10;69.10;;;;;;5076535;28;20489;-91
2022/09/02 09:36:47;;;;;;;3.63;0.60;;;22.30;69.20;;;;;;5075989;28;20029;-90
2022/09/02 09:39:29;;;;;;;4.80;0.40;;;22.40;69.20;;;;;;5075535;28;20028;-90
2022/09/02 09:42:07;;;;;;;4.32;0.47;;;22.60;68.30;;;;;;5074339;28;20025;-92
2022/09/02 09:44:38;;;;;;;3.47;0.93;;;22.70;67.80;;;;;;5063790;28;20365;-92
2022/09/02 09:47:08;;;;;;;2.45;0.40;;;23.00;67.70;;;;;;5074198;28;20025;-92
2022/09/02 09:49:34;;;;;;;1.70;0.40;;;23.20;67.90;;;;;;5074132;28;20036;-92
2022/09/02 09:51:59;;;;;;;4.57;0.55;;;23.40;68.50;;;;;;5076918;28;20389;-92
2022/09/02 09:54:26;;;;;;;5.72;0.50;;;23.70;67.30;;;;;;5074972;28;20043;-92
2022/09/02 09:56:53;;;;;;;2.83;0.50;;;23.80;66.80;;;;;;5071683;28;20060;-91
2022/09/02 09:59:46;;;;;;;2.88;0.55;;;24.00;65.70;;;;;;5076292;28;20071;-93
2022/09/02 10:02:20;;;;;;;2.33;0.47;;;24.10;65.70;;;;;;5069279;28;20035;-92
2022/09/02 10:04:46;;;;;;;1.80;0.50;;;24.20;65.60;;;;;;5070616;28;20056;-92
2022/09/02 10:07:12;;;;;;;3.28;0.80;;;24.20;65.50;;;;;;5075861;28;20074;-93
2022/09/02 10:09:38;;;;;;;6.40;0.73;;;24.30;65.50;;;;;;5073992;28;20015;-91
2022/09/02 10:12:11;;;;;;;3.95;0.50;;;24.50;65.50;;;;;;5076298;28;20028;-92
2022/09/02 10:14:48;;;;;;;3.42;0.50;;;24.70;65.90;;;;;;5069870;28;20124;-94
2022/09/02 10:17:39;;;;;;;1.73;0.52;;;24.90;64.70;;;;;;5057779;28;20169;-92
2022/09/02 10:20:21;;;;;;;2.92;0.57;;;25.10;64.60;;;;;;5069461;28;20039;-91
2022/09/02 10:23:09;;;;;;;3.55;0.50;;;25.20;64.40;;;;;;5073014;28;20024;-91
2022/09/02 10:26:01;;;;;;;5.05;0.70;;;25.10;64.20;;;;;;5073291;28;20055;-92
2022/09/02 10:28:39;;;;;;;1.50;0.50;;;24.90;64.10;;;;;;5075375;28;20504;-92
2022/09/02 10:31:23;;;;;;;3.30;0.50;;;25.00;63.80;;;;;;5075500;28;20032;-92
2022/09/02 10:34:17;;;;;;;3.00;0.50;;;25.10;63.10;;;;;;5073387;28;20044;-92
2022/09/02 10:37:03;;;;;;;2.33;0.50;;;25.20;62.70;;;;;;5075789;28;20367;-93
2022/09/02 10:39:44;;;;;;;4.05;0.50;;;25.20;62.80;;;;;;5071699;28;20032;-93
2022/09/02 10:42:28;;;;;;;2.88;0.60;;;25.20;62.60;;;;;;5075191;28;20035;-92
2022/09/02 10:45:08;;;;;;;2.88;0.47;;;25.30;62.90;;;;;;5075339;28;20021;-94
2022/09/02 10:47:39;;;;;;;5.32;0.80;;;25.40;62.80;;;;;;5074590;28;20369;-92
2022/09/02 10:50:39;;;;;;;1.67;0.50;;;25.50;63.00;;;;;;5074863;28;20036;-93
2022/09/02 10:53:19;;;;;;;3.00;0.80;;;25.60;62.10;;;;;;5055754;28;20044;-93
2022/09/02 10:56:16;;;;;;;2.67;0.60;;;25.70;62.10;;;;;;5071213;28;20055;-91
2022/09/02 10:59:15;;;;;;;2.05;0.50;;;25.70;61.70;;;;;;5074135;28;20044;-92
2022/09/02 11:01:54;;;;;;;4.18;0.60;;;25.80;61.50;;;;;;5074493;28;20031;-93
2022/09/02 11:04:38;;;;;;;4.10;0.60;;;25.90;60.80;;;;;;5073197;28;20032;-92
2022/09/02 11:07:05;;;;;;;2.88;0.55;;;25.80;60.90;;;;;;5072051;28;20035;-94
2022/09/02 11:09:36;;;;;;;3.47;0.63;;;25.90;60.90;;;;;;5068753;28;20100;-93
2022/09/02 11:12:37;;;;;;;2.33;0.50;;;25.90;60.10;;;;;;5068523;28;20052;-95
2022/09/02 11:15:16;;;;;;;1.45;0.60;;;25.90;59.80;;;;;;5032072;28;20051;-92
2022/09/02 11:17:56;;;;;;;3.45;0.57;;;25.90;59.70;;;;;;5070977;28;20458;-93
2022/09/02 11:20:46;;;;;;;3.97;0.70;;;25.90;60.20;;;;;;5072535;28;20029;-95
2022/09/02 11:23:26;;;;;;;2.50;0.45;;;25.90;59.00;;;;;;5062077;28;20488;-94
2022/09/02 11:25:59;;;;;;;1.90;0.40;;;25.90;57.90;;;;;;5071803;28;20030;-94
2022/09/02 11:28:34;;;;;;;3.28;0.82;;;25.90;57.50;;;;;;5072326;28;20025;-96
2022/09/02 11:31:17;;;;;;;1.75;0.40;;;25.90;56.90;;;;;;5075428;28;20020;-95
2022/09/02 11:33:54;;;;;;;3.67;0.50;;;25.90;55.70;;;;;;5080140;28;20036;-95
2022/09/02 11:36:20;;;;;;;2.00;0.40;;;26.00;54.90;;;;;;5073602;28;20052;-95
2022/09/02 11:38:53;;;;;;;1.30;0.43;;;26.00;54.60;;;;;;5064802;28;20036;-94
2022/09/02 11:41:29;;;;;;;3.10;0.38;;;26.20;55.00;;;;;;5080590;28;20025;-95
2022/09/02 11:44:19;;;;;;;1.13;0.40;;;26.30;54.10;;;;;;5076807;28;20426;-94
2022/09/02 11:46:45;;;;;;;3.25;0.60;;;26.40;53.70;;;;;;5050010;28;20028;-96
2022/09/02 11:49:13;;;;;;;2.42;0.50;;;26.60;53.50;;;;;;5079697;28;20552;-94
2022/09/02 11:51:39;;;;;;;3.42;0.50;;;26.80;53.60;;;;;;5080185;28;20039;-95
2022/09/02 11:54:06;;;;;;;2.10;0.40;;;27.00;52.80;;;;;;5076244;28;20028;-95
2022/09/02 11:56:46;;;;;;;3.55;0.60;;;27.10;52.90;;;;;;5074602;28;20021;-93
2022/09/02 11:59:49;;;;;;;1.83;0.50;;;27.20;52.30;;;;;;5075744;28;20501;-94
2022/09/02 12:02:50;;;;;;;5.07;0.50;;;27.30;51.90;;;;;;5052347;28;20071;-94
2022/09/02 12:05:31;;;;;;;3.58;0.45;;;27.30;52.00;;;;;;5075116;28;20048;-94
2022/09/02 12:08:10;;;;;;;2.25;0.50;;;27.40;52.00;;;;;;5070603;28;20029;-93
2022/09/02 12:10:42;;;;;;;2.05;0.70;;;27.60;51.90;;;;;;5073594;28;20029;-93
2022/09/02 12:13:10;;;;;;;4.82;0.60;;;27.60;51.20;;;;;;5074486;28;20036;-94
2022/09/02 12:15:37;;;;;;;1.20;0.50;;;27.70;51.90;;;;;;5074516;28;20040;-94
2022/09/02 12:18:29;;;;;;;1.25;0.43;;;27.90;51.70;;;;;;5075024;28;20120;-94
2022/09/02 12:20:57;;;;;;;1.58;0.50;;;28.00;51.50;;;;;;5070293;28;20079;-94
2022/09/02 12:23:48;;;;;;;2.97;0.45;;;28.00;51.50;;;;;;5072423;28;20040;-95
2022/09/02 12:26:16;;;;;;;1.90;0.50;;;27.80;51.40;;;;;;5075367;28;20020;-94
2022/09/02 12:28:45;;;;;;;1.08;0.40;;;27.60;51.30;;;;;;5073093;28;20028;-95
2022/09/02 12:31:39;;;;;;;2.53;0.50;;;27.40;51.70;;;;;;5071075;28;20033;-93
2022/09/02 12:34:24;;;;;;;3.30;0.57;;;27.20;51.80;;;;;;5054682;28;20033;-92
2022/09/02 12:37:01;;;;;;;2.70;0.60;;;27.10;51.80;;;;;;5066037;28;20362;-93
2022/09/02 12:39:26;;;;;;;4.68;0.60;;;27.00;51.80;;;;;;5066709;28;20144;-93
2022/09/02 12:42:08;;;;;;;3.28;0.60;;;26.90;52.50;;;;;;5074868;28;20052;-93
2022/09/02 12:44:56;;;;;;;5.72;0.60;;;26.90;52.10;;;;;;5074489;28;20027;-93
2022/09/02 12:47:46;;;;;;;3.35;0.60;;;26.80;52.40;;;;;;5073034;28;20044;-94
2022/09/02 12:50:33;;;;;;;2.05;0.50;;;26.90;52.00;;;;;;5068918;28;20476;-94
2022/09/02 12:53:28;;;;;;;3.38;0.50;;;27.10;51.90;;;;;;5060128;28;20046;-92
2022/09/02 12:56:05;;;;;;;1.98;0.50;;;27.20;51.30;;;;;;5078647;28;20119;-93
2022/09/02 12:58:40;;;;;;;1.58;0.40;;;27.30;50.80;;;;;;5068778;28;20507;-94
2022/09/02 13:01:23;;;;;;;1.50;0.40;;;27.40;50.40;;;;;;5074572;28;20028;-93
2022/09/02 13:04:07;;;;;;;2.00;1.20;;;27.70;50.40;;;;;;5069495;28;20093;-93
2022/09/02 13:07:06;;;;;;;1.27;0.50;;;28.00;49.20;;;;;;5069757;28;20279;-93
2022/09/02 13:09:53;;;;;;;1.48;0.40;;;28.00;49.40;;;;;;5068585;28;20016;-93